sensor_id;sensor_type;location;lat;lon;timestamp;pressure;altitude;pressure_sealevel;temperature;humidity
13581;BME280;6861;46.170;7.222;2023-10-19T00:00:32;94858.66;;;16.71;52.78
13581;BME280;6861;46.170;7.222;2023-10-19T00:03:04;94850.19;;;16.65;52.75
13581;BME280;6861;46.170;7.222;2023-10-19T00:05:33;94851.59;;;16.63;53.21
13581;BME280;6861;46.170;7.222;2023-10-19T00:08:03;94839.47;;;16.62;53.30
13581;BME280;6861;46.170;7.222;2023-10-19T00:10:32;94840.25;;;16.62;52.70
13581;BME280;6861;46.170;7.222;2023-10-19T00:13:04;94844.00;;;16.61;52.92
13581;BME280;6861;46.170;7.222;2023-10-19T00:15:32;94834.19;;;16.62;53.77
13581;BME280;6861;46.170;7.222;2023-10-19T00:18:08;94829.69;;;16.62;53.38
13581;BME280;6861;46.170;7.222;2023-10-19T00:20:48;94828.59;;;16.63;53.83
13581;BME280;6861;46.170;7.222;2023-10-19T00:23:20;94820.66;;;16.63;54.16
13581;BME280;6861;46.170;7.222;2023-10-19T00:25:56;94809.88;;;16.56;54.01
13581;BME280;6861;46.170;7.222;2023-10-19T00:28:24;94812.84;;;16.55;54.54
13581;BME280;6861;46.170;7.222;2023-10-19T00:30:53;94813.94;;;16.54;54.52
13581;BME280;6861;46.170;7.222;2023-10-19T00:33:28;94800.31;;;16.52;54.64
13581;BME280;6861;46.170;7.222;2023-10-19T00:35:59;94808.44;;;16.47;54.80
13581;BME280;6861;46.170;7.222;2023-10-19T00:38:34;94805.16;;;16.37;54.62
13581;BME280;6861;46.170;7.222;2023-10-19T00:41:15;94806.03;;;16.29;55.46
13581;BME280;6861;46.170;7.222;2023-10-19T00:43:48;94795.91;;;16.19;55.74
13581;BME280;6861;46.170;7.222;2023-10-19T00:46:19;94793.81;;;16.13;55.84
13581;BME280;6861;46.170;7.222;2023-10-19T00:49:00;94803.03;;;16.06;56.11
13581;BME280;6861;46.170;7.222;2023-10-19T00:51:31;94799.63;;;16.06;56.24
13581;BME280;6861;46.170;7.222;2023-10-19T00:54:11;94800.06;;;16.08;56.13
13581;BME280;6861;46.170;7.222;2023-10-19T00:56:46;94794.47;;;16.10;56.25
13581;BME280;6861;46.170;7.222;2023-10-19T00:59:18;94799.41;;;16.11;55.84
13581;BME280;6861;46.170;7.222;2023-10-19T01:01:50;94800.06;;;16.08;56.23
13581;BME280;6861;46.170;7.222;2023-10-19T01:04:23;94795.31;;;16.01;56.98
13581;BME280;6861;46.170;7.222;2023-10-19T01:06:52;94782.34;;;15.96;57.31
13581;BME280;6861;46.170;7.222;2023-10-19T01:09:31;94782.22;;;15.93;57.19
13581;BME280;6861;46.170;7.222;2023-10-19T01:12:01;94771.44;;;15.86;58.00
13581;BME280;6861;46.170;7.222;2023-10-19T01:14:33;94769.91;;;15.85;57.79
13581;BME280;6861;46.170;7.222;2023-10-19T01:17:02;94771.31;;;15.82;57.85
13581;BME280;6861;46.170;7.222;2023-10-19T01:19:34;94772.75;;;15.80;57.80
13581;BME280;6861;46.170;7.222;2023-10-19T01:22:02;94768.13;;;15.77;58.34
13581;BME280;6861;46.170;7.222;2023-10-19T01:24:34;94770.97;;;15.71;58.21
13581;BME280;6861;46.170;7.222;2023-10-19T01:27:07;94763.91;;;15.63;58.85
13581;BME280;6861;46.170;7.222;2023-10-19T01:29:36;94758.88;;;15.58;58.72
13581;BME280;6861;46.170;7.222;2023-10-19T01:32:06;94746.19;;;15.52;59.47
13581;BME280;6861;46.170;7.222;2023-10-19T01:34:35;94750.44;;;15.44;59.70
13581;BME280;6861;46.170;7.222;2023-10-19T01:37:04;94744.28;;;15.40;59.96
13581;BME280;6861;46.170;7.222;2023-10-19T01:39:31;94734.81;;;15.39;60.02
13581;BME280;6861;46.170;7.222;2023-10-19T01:42:03;94730.78;;;15.41;59.63
13581;BME280;6861;46.170;7.222;2023-10-19T01:44:34;94723.19;;;15.40;59.86
13581;BME280;6861;46.170;7.222;2023-10-19T01:47:03;94726.28;;;15.42;59.75
13581;BME280;6861;46.170;7.222;2023-10-19T01:49:33;94733.72;;;15.40;59.68
13581;BME280;6861;46.170;7.222;2023-10-19T01:52:00;94724.72;;;15.41;59.71
13581;BME280;6861;46.170;7.222;2023-10-19T01:54:28;94723.97;;;15.40;59.47
13581;BME280;6861;46.170;7.222;2023-10-19T01:56:56;94715.28;;;15.40;59.71
13581;BME280;6861;46.170;7.222;2023-10-19T01:59:27;94713.28;;;15.37;60.29
13581;BME280;6861;46.170;7.222;2023-10-19T02:01:54;94710.53;;;15.33;60.32
13581;BME280;6861;46.170;7.222;2023-10-19T02:04:24;94704.38;;;15.29;60.51
13581;BME280;6861;46.170;7.222;2023-10-19T02:06:52;94696.34;;;15.26;61.19
13581;BME280;6861;46.170;7.222;2023-10-19T02:09:21;94686.44;;;15.23;61.19
13581;BME280;6861;46.170;7.222;2023-10-19T02:11:51;94686.34;;;15.19;61.48
13581;BME280;6861;46.170;7.222;2023-10-19T02:14:24;94681.06;;;15.19;61.32
13581;BME280;6861;46.170;7.222;2023-10-19T02:16:54;94669.88;;;15.22;61.39
13581;BME280;6861;46.170;7.222;2023-10-19T02:19:25;94667.25;;;15.22;61.55
13581;BME280;6861;46.170;7.222;2023-10-19T02:21:56;94657.47;;;15.23;61.30
13581;BME280;6861;46.170;7.222;2023-10-19T02:24:23;94668.00;;;15.23;61.47
13581;BME280;6861;46.170;7.222;2023-10-19T02:26:54;94657.47;;;15.23;61.74
13581;BME280;6861;46.170;7.222;2023-10-19T02:29:22;94650.22;;;15.20;61.74
13581;BME280;6861;46.170;7.222;2023-10-19T02:31:50;94650.22;;;15.20;61.49
13581;BME280;6861;46.170;7.222;2023-10-19T02:34:19;94654.72;;;15.19;61.90
13581;BME280;6861;46.170;7.222;2023-10-19T02:36:47;94644.06;;;15.16;61.96
13581;BME280;6861;46.170;7.222;2023-10-19T02:39:16;94642.41;;;15.11;61.90
13581;BME280;6861;46.170;7.222;2023-10-19T02:41:45;94632.50;;;15.08;62.42
13581;BME280;6861;46.170;7.222;2023-10-19T02:44:15;94627.44;;;15.03;62.30
13581;BME280;6861;46.170;7.222;2023-10-19T02:46:47;94632.59;;;14.99;62.41
13581;BME280;6861;46.170;7.222;2023-10-19T02:49:31;94630.16;;;14.94;62.47
13581;BME280;6861;46.170;7.222;2023-10-19T02:52:05;94634.97;;;14.92;62.27
13581;BME280;6861;46.170;7.222;2023-10-19T02:54:32;94614.56;;;14.89;62.43
13581;BME280;6861;46.170;7.222;2023-10-19T02:57:01;94621.38;;;14.90;62.26
13581;BME280;6861;46.170;7.222;2023-10-19T02:59:34;94621.38;;;14.90;62.42
13581;BME280;6861;46.170;7.222;2023-10-19T03:02:02;94621.38;;;14.90;62.17
13581;BME280;6861;46.170;7.222;2023-10-19T03:04:35;94621.38;;;14.90;62.55
13581;BME280;6861;46.170;7.222;2023-10-19T03:07:03;94618.72;;;14.90;62.21
13581;BME280;6861;46.170;7.222;2023-10-19T03:09:31;94616.09;;;14.90;62.40
13581;BME280;6861;46.170;7.222;2023-10-19T03:12:03;94606.22;;;14.87;62.36
13581;BME280;6861;46.170;7.222;2023-10-19T03:14:36;94597.41;;;14.83;62.61
13581;BME280;6861;46.170;7.222;2023-10-19T03:17:04;94608.28;;;14.82;62.62
13581;BME280;6861;46.170;7.222;2023-10-19T03:19:37;94590.16;;;14.80;62.59
13581;BME280;6861;46.170;7.222;2023-10-19T03:22:05;94590.94;;;14.81;62.94
13581;BME280;6861;46.170;7.222;2023-10-19T03:24:34;94584.25;;;14.83;62.37
13581;BME280;6861;46.170;7.222;2023-10-19T03:27:09;94577.69;;;14.89;62.48
13581;BME280;6861;46.170;7.222;2023-10-19T03:29:43;94564.06;;;14.87;62.76
13581;BME280;6861;46.170;7.222;2023-10-19T03:32:13;94572.88;;;14.91;62.32
13581;BME280;6861;46.170;7.222;2023-10-19T03:34:44;94578.25;;;14.95;62.22
13581;BME280;6861;46.170;7.222;2023-10-19T03:37:15;94576.81;;;14.97;62.20
13581;BME280;6861;46.170;7.222;2023-10-19T03:39:48;94561.91;;;15.01;62.02
13581;BME280;6861;46.170;7.222;2023-10-19T03:42:16;94558.50;;;15.01;61.83
13581;BME280;6861;46.170;7.222;2023-10-19T03:44:47;94557.28;;;14.98;61.91
13581;BME280;6861;46.170;7.222;2023-10-19T03:47:21;94559.94;;;14.98;62.04
13581;BME280;6861;46.170;7.222;2023-10-19T03:49:54;94559.59;;;15.00;61.92
13581;BME280;6861;46.170;7.222;2023-10-19T03:52:23;94560.81;;;15.02;61.56
13581;BME280;6861;46.170;7.222;2023-10-19T03:54:53;94556.09;;;15.08;61.54
13581;BME280;6861;46.170;7.222;2023-10-19T03:57:21;94562.59;;;15.11;61.58
13581;BME280;6861;46.170;7.222;2023-10-19T03:59:52;94551.16;;;15.06;61.50
13581;BME280;6861;46.170;7.222;2023-10-19T04:02:24;94562.91;;;15.09;61.74
13581;BME280;6861;46.170;7.222;2023-10-19T04:04:57;94561.69;;;15.06;61.88
13581;BME280;6861;46.170;7.222;2023-10-19T04:07:25;94557.09;;;15.03;61.82
13581;BME280;6861;46.170;7.222;2023-10-19T04:09:55;94555.56;;;15.02;61.78
13581;BME280;6861;46.170;7.222;2023-10-19T04:12:38;94547.97;;;15.01;61.98
13581;BME280;6861;46.170;7.222;2023-10-19T04:15:10;94555.56;;;15.02;61.96
13581;BME280;6861;46.170;7.222;2023-10-19T04:17:41;94538.84;;;14.98;61.94
13581;BME280;6861;46.170;7.222;2023-10-19T04:20:12;94529.22;;;15.02;62.24
13581;BME280;6861;46.170;7.222;2023-10-19T04:22:56;94526.91;;;15.01;61.96
13581;BME280;6861;46.170;7.222;2023-10-19T04:25:32;94523.94;;;15.02;61.91
13581;BME280;6861;46.170;7.222;2023-10-19T04:28:00;94517.03;;;14.98;62.30
13581;BME280;6861;46.170;7.222;2023-10-19T04:30:29;94504.19;;;14.96;62.45
13581;BME280;6861;46.170;7.222;2023-10-19T04:32:59;94502.63;;;14.95;62.31
13581;BME280;6861;46.170;7.222;2023-10-19T04:35:30;94513.06;;;14.92;62.49
13581;BME280;6861;46.170;7.222;2023-10-19T04:38:03;94509.22;;;14.89;62.51
13581;BME280;6861;46.170;7.222;2023-10-19T04:40:33;94501.63;;;14.88;62.60
13581;BME280;6861;46.170;7.222;2023-10-19T04:43:03;94508.44;;;14.89;62.45
13581;BME280;6861;46.170;7.222;2023-10-19T04:45:32;94503.63;;;14.91;62.25
13581;BME280;6861;46.170;7.222;2023-10-19T04:48:00;94488.25;;;14.93;62.36
13581;BME280;6861;46.170;7.222;2023-10-19T04:50:33;94478.50;;;14.93;62.13
13581;BME280;6861;46.170;7.222;2023-10-19T04:53:01;94475.41;;;14.91;61.78
13581;BME280;6861;46.170;7.222;2023-10-19T04:55:30;94467.19;;;14.93;62.20
13581;BME280;6861;46.170;7.222;2023-10-19T04:57:58;94458.84;;;14.91;62.00
13581;BME280;6861;46.170;7.222;2023-10-19T05:00:26;94463.34;;;14.90;61.83
13581;BME280;6861;46.170;7.222;2023-10-19T05:02:55;94451.72;;;14.91;61.95
13581;BME280;6861;46.170;7.222;2023-10-19T05:05:23;94451.28;;;14.89;61.79
13581;BME280;6861;46.170;7.222;2023-10-19T05:07:52;94457.63;;;14.88;61.76
13581;BME280;6861;46.170;7.222;2023-10-19T05:10:21;94454.25;;;14.88;61.69
13581;BME280;6861;46.170;7.222;2023-10-19T05:12:49;94468.81;;;14.85;62.31
13581;BME280;6861;46.170;7.222;2023-10-19T05:15:17;94463.13;;;14.83;62.05
13581;BME280;6861;46.170;7.222;2023-10-19T05:17:45;94453.25;;;14.80;62.08
13581;BME280;6861;46.170;7.222;2023-10-19T05:20:14;94450.16;;;14.78;62.35
13581;BME280;6861;46.170;7.222;2023-10-19T05:22:42;94440.63;;;14.73;62.67
13581;BME280;6861;46.170;7.222;2023-10-19T05:25:12;94435.25;;;14.70;62.87
13581;BME280;6861;46.170;7.222;2023-10-19T05:27:40;94432.19;;;14.68;63.05
13581;BME280;6861;46.170;7.222;2023-10-19T05:30:13;94428.78;;;14.67;62.78
13581;BME280;6861;46.170;7.222;2023-10-19T05:32:41;94430.31;;;14.68;62.84
13581;BME280;6861;46.170;7.222;2023-10-19T05:35:09;94426.16;;;14.67;62.93
13581;BME280;6861;46.170;7.222;2023-10-19T05:37:40;94431.09;;;14.69;62.89
13581;BME280;6861;46.170;7.222;2023-10-19T05:40:10;94433.28;;;14.67;62.60
13581;BME280;6861;46.170;7.222;2023-10-19T05:42:43;94439.44;;;14.71;62.94
13581;BME280;6861;46.170;7.222;2023-10-19T05:45:13;94425.94;;;14.72;62.81
13581;BME280;6861;46.170;7.222;2023-10-19T05:47:43;94419.22;;;14.75;62.47
13581;BME280;6861;46.170;7.222;2023-10-19T05:50:12;94417.81;;;14.77;62.47
13581;BME280;6861;46.170;7.222;2023-10-19T05:52:42;94418.56;;;14.78;62.18
13581;BME280;6861;46.170;7.222;2023-10-19T05:55:11;94411.56;;;14.82;61.76
13581;BME280;6861;46.170;7.222;2023-10-19T05:57:39;94413.53;;;14.85;61.61
13581;BME280;6861;46.170;7.222;2023-10-19T06:00:11;94411.78;;;14.89;61.73
13581;BME280;6861;46.170;7.222;2023-10-19T06:02:45;94411.13;;;14.92;61.69
13581;BME280;6861;46.170;7.222;2023-10-19T06:05:14;94402.44;;;14.92;61.82
13581;BME280;6861;46.170;7.222;2023-10-19T06:07:44;94403.97;;;14.93;61.55
13581;BME280;6861;46.170;7.222;2023-10-19T06:10:14;94406.06;;;14.87;61.86
13581;BME280;6861;46.170;7.222;2023-10-19T06:12:44;94403.00;;;14.85;61.84
13581;BME280;6861;46.170;7.222;2023-10-19T06:15:16;94399.91;;;14.83;61.65
13581;BME280;6861;46.170;7.222;2023-10-19T06:17:45;94399.03;;;14.79;62.27
13581;BME280;6861;46.170;7.222;2023-10-19T06:20:15;94397.06;;;14.76;62.13
13581;BME280;6861;46.170;7.222;2023-10-19T06:22:52;94397.50;;;14.78;62.24
13581;BME280;6861;46.170;7.222;2023-10-19T06:25:24;94395.31;;;14.80;61.89
13581;BME280;6861;46.170;7.222;2023-10-19T06:27:54;94393.13;;;14.82;61.75
13581;BME280;6861;46.170;7.222;2023-10-19T06:30:26;94403.22;;;14.92;61.65
13581;BME280;6861;46.170;7.222;2023-10-19T06:32:55;94389.50;;;14.99;61.48
13581;BME280;6861;46.170;7.222;2023-10-19T06:35:29;94385.88;;;15.16;61.18
13581;BME280;6861;46.170;7.222;2023-10-19T06:37:59;94372.66;;;15.28;60.81
13581;BME280;6861;46.170;7.222;2023-10-19T06:40:30;94363.00;;;15.32;60.32
13581;BME280;6861;46.170;7.222;2023-10-19T06:42:59;94371.44;;;15.37;60.46
13581;BME280;6861;46.170;7.222;2023-10-19T06:45:31;94385.34;;;15.50;60.90
13581;BME280;6861;46.170;7.222;2023-10-19T06:48:00;94386.03;;;15.59;60.64
13581;BME280;6861;46.170;7.222;2023-10-19T06:50:29;94375.31;;;15.68;60.33
13581;BME280;6861;46.170;7.222;2023-10-19T06:52:58;94383.06;;;15.77;59.84
13581;BME280;6861;46.170;7.222;2023-10-19T06:55:26;94381.84;;;15.86;59.62
13581;BME280;6861;46.170;7.222;2023-10-19T06:57:55;94380.16;;;15.94;59.21
13581;BME280;6861;46.170;7.222;2023-10-19T07:00:24;94380.34;;;16.01;59.01
13581;BME280;6861;46.170;7.222;2023-10-19T07:02:57;94381.72;;;16.11;58.59
13581;BME280;6861;46.170;7.222;2023-10-19T07:05:27;94368.38;;;16.19;57.80
13581;BME280;6861;46.170;7.222;2023-10-19T07:07:58;94367.13;;;16.29;57.11
13581;BME280;6861;46.170;7.222;2023-10-19T07:10:28;94368.81;;;16.37;57.11
13581;BME280;6861;46.170;7.222;2023-10-19T07:12:56;94365.16;;;16.42;56.66
13581;BME280;6861;46.170;7.222;2023-10-19T07:15:25;94355.47;;;16.46;56.86
13581;BME280;6861;46.170;7.222;2023-10-19T07:17:58;94354.06;;;16.52;57.22
13581;BME280;6861;46.170;7.222;2023-10-19T07:20:26;94357.31;;;16.61;57.38
13581;BME280;6861;46.170;7.222;2023-10-19T07:22:57;94360.38;;;16.63;57.25
13581;BME280;6861;46.170;7.222;2023-10-19T07:25:27;94367.09;;;16.60;57.25
13581;BME280;6861;46.170;7.222;2023-10-19T07:27:56;94373.16;;;16.61;57.59
13581;BME280;6861;46.170;7.222;2023-10-19T07:30:27;94367.88;;;16.61;57.36
13581;BME280;6861;46.170;7.222;2023-10-19T07:32:55;94361.81;;;16.60;57.61
13581;BME280;6861;46.170;7.222;2023-10-19T07:35:27;94360.63;;;16.58;57.30
13581;BME280;6861;46.170;7.222;2023-10-19T07:38:02;94358.00;;;16.58;57.20
13581;BME280;6861;46.170;7.222;2023-10-19T07:40:31;94355.78;;;16.60;56.87
13581;BME280;6861;46.170;7.222;2023-10-19T07:43:00;94354.44;;;16.66;56.32
13581;BME280;6861;46.170;7.222;2023-10-19T07:45:28;94346.16;;;16.67;55.71
13581;BME280;6861;46.170;7.222;2023-10-19T07:47:58;94347.63;;;16.65;55.73
13581;BME280;6861;46.170;7.222;2023-10-19T07:50:35;94343.09;;;16.65;55.80
13581;BME280;6861;46.170;7.222;2023-10-19T07:53:04;94335.06;;;16.62;56.10
13581;BME280;6861;46.170;7.222;2023-10-19T07:55:33;94332.44;;;16.62;56.52
13581;BME280;6861;46.170;7.222;2023-10-19T07:58:01;94332.84;;;16.64;56.39
13581;BME280;6861;46.170;7.222;2023-10-19T08:00:30;94320.75;;;16.63;56.63
13581;BME280;6861;46.170;7.222;2023-10-19T08:03:01;94321.03;;;16.58;56.70
13581;BME280;6861;46.170;7.222;2023-10-19T08:05:30;94311.81;;;16.52;57.06
13581;BME280;6861;46.170;7.222;2023-10-19T08:08:00;94312.50;;;16.49;57.15
13581;BME280;6861;46.170;7.222;2023-10-19T08:10:31;94301.13;;;16.45;57.30
13581;BME280;6861;46.170;7.222;2023-10-19T08:13:02;94298.81;;;16.43;57.07
13581;BME280;6861;46.170;7.222;2023-10-19T08:15:30;94299.59;;;16.44;56.78
13581;BME280;6861;46.170;7.222;2023-10-19T08:17:59;94288.84;;;16.52;56.80
13581;BME280;6861;46.170;7.222;2023-10-19T08:20:27;94286.88;;;16.65;56.34
13581;BME280;6861;46.170;7.222;2023-10-19T08:23:01;94297.25;;;16.74;56.19
13581;BME280;6861;46.170;7.222;2023-10-19T08:25:29;94289.06;;;16.79;55.94
13581;BME280;6861;46.170;7.222;2023-10-19T08:28:00;94280.97;;;16.87;55.72
13581;BME280;6861;46.170;7.222;2023-10-19T08:30:29;94282.09;;;17.06;55.40
13581;BME280;6861;46.170;7.222;2023-10-19T08:32:57;94278.78;;;17.28;54.82
13581;BME280;6861;46.170;7.222;2023-10-19T08:35:26;94272.41;;;17.52;54.05
13581;BME280;6861;46.170;7.222;2023-10-19T08:37:56;94264.13;;;17.73;53.82
13581;BME280;6861;46.170;7.222;2023-10-19T08:40:26;94261.56;;;17.76;54.11
13581;BME280;6861;46.170;7.222;2023-10-19T08:42:55;94252.38;;;17.70;54.07
13581;BME280;6861;46.170;7.222;2023-10-19T08:45:24;94244.63;;;17.61;53.97
13581;BME280;6861;46.170;7.222;2023-10-19T08:47:55;94253.00;;;17.63;54.26
13581;BME280;6861;46.170;7.222;2023-10-19T08:50:24;94249.31;;;17.68;53.66
13581;BME280;6861;46.170;7.222;2023-10-19T08:52:54;94233.00;;;17.85;53.08
13581;BME280;6861;46.170;7.222;2023-10-19T08:55:23;94226.28;;;18.14;52.50
13581;BME280;6861;46.170;7.222;2023-10-19T08:58:13;94211.50;;;18.62;51.45
13581;BME280;6861;46.170;7.222;2023-10-19T09:00:45;94204.44;;;19.04;50.08
13581;BME280;6861;46.170;7.222;2023-10-19T09:03:16;94205.63;;;19.43;49.12
13581;BME280;6861;46.170;7.222;2023-10-19T09:05:45;94204.41;;;19.71;48.59
13581;BME280;6861;46.170;7.222;2023-10-19T09:08:15;94190.13;;;19.86;47.95
13581;BME280;6861;46.170;7.222;2023-10-19T09:10:46;94193.22;;;19.95;47.68
13581;BME280;6861;46.170;7.222;2023-10-19T09:13:16;94188.38;;;20.04;47.56
13581;BME280;6861;46.170;7.222;2023-10-19T09:15:47;94186.50;;;20.08;47.60
13581;BME280;6861;46.170;7.222;2023-10-19T09:18:17;94194.84;;;20.10;47.65
13581;BME280;6861;46.170;7.222;2023-10-19T09:20:47;94182.59;;;19.95;47.48
13581;BME280;6861;46.170;7.222;2023-10-19T09:23:24;94184.81;;;19.82;47.78
13581;BME280;6861;46.170;7.222;2023-10-19T09:25:56;94165.03;;;19.76;47.73
13581;BME280;6861;46.170;7.222;2023-10-19T09:28:26;94172.63;;;19.78;47.92
13581;BME280;6861;46.170;7.222;2023-10-19T09:30:55;94164.00;;;19.88;47.70
13581;BME280;6861;46.170;7.222;2023-10-19T09:33:24;94158.53;;;20.21;46.92
13581;BME280;6861;46.170;7.222;2023-10-19T09:35:53;94166.97;;;21.14;45.61
13581;BME280;6861;46.170;7.222;2023-10-19T09:38:23;94172.81;;;21.87;44.00
13581;BME280;6861;46.170;7.222;2023-10-19T09:40:53;94158.00;;;22.07;43.53
13581;BME280;6861;46.170;7.222;2023-10-19T09:43:29;94153.44;;;22.11;43.18
13581;BME280;6861;46.170;7.222;2023-10-19T09:46:00;94153.81;;;22.06;43.26
13581;BME280;6861;46.170;7.222;2023-10-19T09:48:29;94142.75;;;22.01;43.76
13581;BME280;6861;46.170;7.222;2023-10-19T09:51:03;94141.25;;;21.92;43.96
13581;BME280;6861;46.170;7.222;2023-10-19T09:53:31;94148.47;;;21.88;44.20
13581;BME280;6861;46.170;7.222;2023-10-19T09:56:01;94135.91;;;21.89;43.97
13581;BME280;6861;46.170;7.222;2023-10-19T09:58:44;94131.31;;;22.43;43.12
13581;BME280;6861;46.170;7.222;2023-10-19T10:01:13;94122.28;;;23.17;41.99
13581;BME280;6861;46.170;7.222;2023-10-19T10:03:43;94114.53;;;23.37;41.21
13581;BME280;6861;46.170;7.222;2023-10-19T10:06:12;94110.75;;;23.34;41.10
13581;BME280;6861;46.170;7.222;2023-10-19T10:08:42;94104.63;;;23.37;40.96
13581;BME280;6861;46.170;7.222;2023-10-19T10:11:21;94092.34;;;23.43;40.95
13581;BME280;6861;46.170;7.222;2023-10-19T10:13:53;94106.38;;;23.62;40.45
13581;BME280;6861;46.170;7.222;2023-10-19T10:16:23;94094.28;;;23.95;39.62
13581;BME280;6861;46.170;7.222;2023-10-19T10:18:55;94089.50;;;24.16;39.04
13581;BME280;6861;46.170;7.222;2023-10-19T10:21:26;94088.81;;;26.74;35.86
13581;BME280;6861;46.170;7.222;2023-10-19T10:23:57;94081.94;;;30.55;30.36
13581;BME280;6861;46.170;7.222;2023-10-19T10:26:27;94085.53;;;31.58;28.63
13581;BME280;6861;46.170;7.222;2023-10-19T10:29:12;94086.28;;;30.31;30.17
13581;BME280;6861;46.170;7.222;2023-10-19T10:31:42;94079.59;;;29.25;31.28
13581;BME280;6861;46.170;7.222;2023-10-19T10:34:25;94075.16;;;29.82;30.58
13581;BME280;6861;46.170;7.222;2023-10-19T10:37:04;94065.22;;;33.45;26.69
13581;BME280;6861;46.170;7.222;2023-10-19T10:39:36;94058.38;;;35.13;24.83
13581;BME280;6861;46.170;7.222;2023-10-19T10:42:05;94057.56;;;36.27;23.59
13581;BME280;6861;46.170;7.222;2023-10-19T10:44:39;94058.75;;;36.26;23.34
13581;BME280;6861;46.170;7.222;2023-10-19T10:47:09;94053.97;;;37.88;22.01
13581;BME280;6861;46.170;7.222;2023-10-19T10:49:51;94036.69;;;38.89;20.73
13581;BME280;6861;46.170;7.222;2023-10-19T10:52:28;94030.81;;;37.40;21.83
13581;BME280;6861;46.170;7.222;2023-10-19T10:54:57;94023.00;;;38.95;20.63
13581;BME280;6861;46.170;7.222;2023-10-19T10:57:32;94025.22;;;39.02;19.78
13581;BME280;6861;46.170;7.222;2023-10-19T11:00:04;94036.69;;;39.28;20.13
13581;BME280;6861;46.170;7.222;2023-10-19T11:02:35;94025.13;;;40.55;19.11
13581;BME280;6861;46.170;7.222;2023-10-19T11:05:04;94044.88;;;39.68;19.85
13581;BME280;6861;46.170;7.222;2023-10-19T11:07:34;94037.03;;;40.11;19.42
13581;BME280;6861;46.170;7.222;2023-10-19T11:10:03;94045.25;;;41.40;18.02
13581;BME280;6861;46.170;7.222;2023-10-19T11:12:32;94035.94;;;39.06;19.44
13581;BME280;6861;46.170;7.222;2023-10-19T11:15:03;94038.75;;;36.55;21.21
13581;BME280;6861;46.170;7.222;2023-10-19T11:17:42;94051.41;;;34.39;22.98
13581;BME280;6861;46.170;7.222;2023-10-19T11:20:20;94045.13;;;32.40;25.22
13581;BME280;6861;46.170;7.222;2023-10-19T11:22:50;94040.22;;;30.91;26.37
13581;BME280;6861;46.170;7.222;2023-10-19T11:25:21;94039.59;;;29.74;27.80
13581;BME280;6861;46.170;7.222;2023-10-19T11:27:50;94025.75;;;28.70;28.63
13581;BME280;6861;46.170;7.222;2023-10-19T11:30:24;94024.25;;;27.83;28.90
13581;BME280;6861;46.170;7.222;2023-10-19T11:32:53;94015.22;;;27.28;29.93
13581;BME280;6861;46.170;7.222;2023-10-19T11:35:25;94006.66;;;26.81;30.52
13581;BME280;6861;46.170;7.222;2023-10-19T11:37:55;94005.59;;;26.38;31.78
13581;BME280;6861;46.170;7.222;2023-10-19T11:40:24;93990.66;;;25.98;32.06
13581;BME280;6861;46.170;7.222;2023-10-19T11:42:54;93991.59;;;25.68;33.53
13581;BME280;6861;46.170;7.222;2023-10-19T11:45:25;93983.69;;;25.57;33.64
13581;BME280;6861;46.170;7.222;2023-10-19T11:47:54;93976.88;;;25.53;33.94
13581;BME280;6861;46.170;7.222;2023-10-19T11:50:24;93977.00;;;25.45;34.12
13581;BME280;6861;46.170;7.222;2023-10-19T11:52:52;93970.66;;;25.36;34.06
13581;BME280;6861;46.170;7.222;2023-10-19T11:55:21;93962.09;;;25.21;33.73
13581;BME280;6861;46.170;7.222;2023-10-19T11:57:49;93948.50;;;25.12;33.68
13581;BME280;6861;46.170;7.222;2023-10-19T12:00:17;93934.78;;;25.10;33.89
13581;BME280;6861;46.170;7.222;2023-10-19T12:02:50;93931.28;;;25.13;33.71
13581;BME280;6861;46.170;7.222;2023-10-19T12:05:20;93920.22;;;25.11;33.57
13581;BME280;6861;46.170;7.222;2023-10-19T12:07:48;93911.09;;;25.08;33.86
13581;BME280;6861;46.170;7.222;2023-10-19T12:10:16;93902.78;;;25.03;33.85
13581;BME280;6861;46.170;7.222;2023-10-19T12:12:47;93911.25;;;24.98;33.80
13581;BME280;6861;46.170;7.222;2023-10-19T12:15:27;93911.44;;;24.83;34.19
13581;BME280;6861;46.170;7.222;2023-10-19T12:17:57;93906.59;;;24.75;34.49
13581;BME280;6861;46.170;7.222;2023-10-19T12:20:25;93912.47;;;24.66;34.30
13581;BME280;6861;46.170;7.222;2023-10-19T12:22:53;93906.38;;;24.66;34.79
13581;BME280;6861;46.170;7.222;2023-10-19T12:25:22;93904.00;;;24.71;34.91
13581;BME280;6861;46.170;7.222;2023-10-19T12:28:08;93906.25;;;24.73;34.71
13581;BME280;6861;46.170;7.222;2023-10-19T12:30:41;93905.84;;;24.74;34.65
13581;BME280;6861;46.170;7.222;2023-10-19T12:33:11;93903.88;;;24.78;34.26
13581;BME280;6861;46.170;7.222;2023-10-19T12:35:40;93892.25;;;24.89;34.55
13581;BME280;6861;46.170;7.222;2023-10-19T12:38:15;93879.19;;;24.94;34.98
13581;BME280;6861;46.170;7.222;2023-10-19T12:40:44;93874.38;;;25.09;34.43
13581;BME280;6861;46.170;7.222;2023-10-19T12:43:13;93865.78;;;25.17;34.56
13581;BME280;6861;46.170;7.222;2023-10-19T12:45:42;93868.06;;;25.19;34.95
13581;BME280;6861;46.170;7.222;2023-10-19T12:48:16;93860.44;;;25.17;35.02
13581;BME280;6861;46.170;7.222;2023-10-19T12:50:45;93844.88;;;25.12;35.16
13581;BME280;6861;46.170;7.222;2023-10-19T12:53:13;93842.75;;;25.04;35.08
13581;BME280;6861;46.170;7.222;2023-10-19T12:55:42;93827.66;;;24.90;34.51
13581;BME280;6861;46.170;7.222;2023-10-19T12:58:11;93818.63;;;24.80;34.93
13581;BME280;6861;46.170;7.222;2023-10-19T13:00:42;93806.53;;;24.72;35.24
13581;BME280;6861;46.170;7.222;2023-10-19T13:03:12;93801.31;;;24.65;35.60
13581;BME280;6861;46.170;7.222;2023-10-19T13:05:44;93794.84;;;24.63;35.57
13581;BME280;6861;46.170;7.222;2023-10-19T13:08:14;93785.84;;;24.53;35.53
13581;BME280;6861;46.170;7.222;2023-10-19T13:10:43;93774.56;;;24.42;35.68
13581;BME280;6861;46.170;7.222;2023-10-19T13:13:15;93785.34;;;24.35;35.36
13581;BME280;6861;46.170;7.222;2023-10-19T13:15:45;93777.44;;;24.28;35.43
13581;BME280;6861;46.170;7.222;2023-10-19T13:18:15;93774.06;;;24.24;35.31
13581;BME280;6861;46.170;7.222;2023-10-19T13:20:48;93768.38;;;24.22;35.27
13581;BME280;6861;46.170;7.222;2023-10-19T13:23:16;93766.88;;;24.21;35.21
13581;BME280;6861;46.170;7.222;2023-10-19T13:25:49;93755.00;;;24.22;34.87
13581;BME280;6861;46.170;7.222;2023-10-19T13:28:21;93772.09;;;24.28;35.02